createdAt,value
2022-09-14T00:00:02.425Z,97071.97
2022-09-14T00:02:37.411Z,97059.63
2022-09-14T00:05:05.471Z,97058.84
2022-09-14T00:07:32.902Z,97059.09
2022-09-14T00:10:00.812Z,97046.75
2022-09-14T00:12:28.288Z,97036.56
2022-09-14T00:14:55.836Z,97038.72
2022-09-14T00:17:23.601Z,97033.91
2022-09-14T00:19:51.191Z,97031.78
2022-09-14T00:22:18.665Z,97037.47
2022-09-14T00:24:46.286Z,97032.66
2022-09-14T00:27:13.865Z,97034.00
2022-09-14T00:29:41.416Z,97034.00
2022-09-14T00:32:08.978Z,97024.88
2022-09-14T00:34:36.566Z,97023.59
2022-09-14T00:37:04.362Z,97019.81
2022-09-14T00:39:31.901Z,97021.72
2022-09-14T00:41:59.764Z,97028.69
2022-09-14T00:44:27.225Z,97019.81
2022-09-14T00:46:57.436Z,97022.50
2022-09-14T00:49:31.306Z,97025.75
2022-09-14T00:52:01.410Z,97017.13
2022-09-14T00:54:28.851Z,97018.47
2022-09-14T00:56:59.424Z,97012.31
2022-09-14T00:59:31.063Z,97010.69
2022-09-14T01:01:58.834Z,97012.31
2022-09-14T01:04:26.440Z,97007.47
2022-09-14T01:07:06.776Z,97000.19
2022-09-14T01:09:56.124Z,97008.81
2022-09-14T01:12:30.226Z,97016.06
2022-09-14T01:15:12.193Z,97006.38
2022-09-14T01:17:45.405Z,97000.47
2022-09-14T01:20:27.085Z,97006.38
2022-09-14T01:23:21.120Z,97005.03
2022-09-14T01:26:20.534Z,97015.00
2022-09-14T01:28:56.935Z,97012.84
2022-09-14T01:31:46.004Z,97010.66
2022-09-14T01:34:39.043Z,97006.59
2022-09-14T01:37:26.262Z,97002.53
2022-09-14T01:40:00.666Z,96993.13
2022-09-14T01:42:29.543Z,96991.44
2022-09-14T01:45:01.572Z,96992.25
2022-09-14T01:47:39.964Z,96994.16
2022-09-14T01:50:23.035Z,96982.28
2022-09-14T01:52:56.523Z,96979.84
2022-09-14T01:55:36.943Z,96974.75
2022-09-14T01:58:25.883Z,96986.81
2022-09-14T02:00:56.906Z,96977.97
2022-09-14T02:03:31.543Z,96990.03
2022-09-14T02:06:09.414Z,96974.97
2022-09-14T02:08:37.522Z,96968.53
2022-09-14T02:11:05.083Z,96970.13
2022-09-14T02:13:33.651Z,96966.88
2022-09-14T02:16:01.454Z,96965.78
2022-09-14T02:18:29.314Z,96972.47
2022-09-14T02:21:04.414Z,96967.09
2022-09-14T02:23:32.371Z,96959.53
2022-09-14T02:25:59.790Z,96959.81
2022-09-14T02:28:27.333Z,96959.31
2022-09-14T02:31:16.380Z,96952.31
2022-09-14T02:33:59.914Z,96951.25
2022-09-14T02:37:15.650Z,96944.78
2022-09-14T02:40:12.084Z,96938.59
2022-09-14T02:42:44.030Z,96942.59
2022-09-14T02:45:43.717Z,96936.41
2022-09-14T02:48:31.392Z,96939.91
2022-09-14T02:51:06.572Z,96942.59
2022-09-14T02:53:46.378Z,96941.00
2022-09-14T02:56:15.335Z,96930.22
2022-09-14T02:58:45.640Z,96934.25
2022-09-14T03:01:16.843Z,96946.59
2022-09-14T03:03:44.527Z,96946.00
2022-09-14T03:06:12.813Z,96953.81
2022-09-14T03:08:41.352Z,96949.81
2022-09-14T03:11:08.983Z,96949.81
2022-09-14T03:13:37.525Z,96950.81
2022-09-14T03:16:07.402Z,96951.91
2022-09-14T03:18:35.955Z,96944.66
2022-09-14T03:21:08.340Z,96947.06
2022-09-14T03:23:37.915Z,96947.06
2022-09-14T03:26:14.483Z,96943.56
2022-09-14T03:28:42.690Z,96945.69
2022-09-14T03:31:11.652Z,96941.91
2022-09-14T03:33:39.668Z,96948.88
2022-09-14T03:36:12.702Z,96942.94
2022-09-14T03:38:44.103Z,96945.63
2022-09-14T03:41:13.343Z,96943.72
2022-09-14T03:43:41.793Z,96941.56
2022-09-14T03:46:14.608Z,96946.13
2022-09-14T03:48:42.734Z,96939.97
2022-09-14T03:51:12.964Z,96930.56
2022-09-14T03:53:42.069Z,96941.91
2022-09-14T03:56:15.670Z,96940.31
2022-09-14T03:58:45.138Z,96932.25
2022-09-14T04:01:16.099Z,96924.16
2022-09-14T04:03:44.463Z,96915.00
2022-09-14T04:06:12.432Z,96910.94
2022-09-14T04:08:41.566Z,96905.56
2022-09-14T04:11:12.167Z,96897.72
2022-09-14T04:13:40.640Z,96895.59
2022-09-14T04:16:08.569Z,96900.97
2022-09-14T04:18:36.369Z,96894.50
2022-09-14T04:21:10.467Z,96899.88
2022-09-14T04:23:56.963Z,96901.59
2022-09-14T04:26:28.022Z,96899.28
2022-09-14T04:28:56.689Z,96899.00
2022-09-14T04:31:24.893Z,96899.41
2022-09-14T04:33:56.374Z,96903.28
2022-09-14T04:36:28.596Z,96903.81
2022-09-14T04:38:58.393Z,96900.72
2022-09-14T04:41:26.782Z,96902.94
2022-09-14T04:43:56.043Z,96898.88
2022-09-14T04:46:26.624Z,96897.56
2022-09-14T04:48:54.794Z,96899.69
2022-09-14T04:51:25.093Z,96892.19
2022-09-14T04:53:56.425Z,96895.97
2022-09-14T04:56:24.635Z,96892.19
2022-09-14T04:58:55.577Z,96888.44
2022-09-14T05:01:25.816Z,96887.03
2022-09-14T05:03:54.080Z,96884.34
2022-09-14T05:06:24.281Z,96884.59
2022-09-14T05:08:52.632Z,96881.59
2022-09-14T05:11:22.395Z,96870.56
2022-09-14T05:13:51.103Z,96870.00
2022-09-14T05:16:21.393Z,96867.06
2022-09-14T05:18:49.896Z,96869.81
2022-09-14T05:21:19.533Z,96869.81
2022-09-14T05:23:47.183Z,96865.81
2022-09-14T05:26:15.133Z,96860.13
2022-09-14T05:28:42.645Z,96857.75
2022-09-14T05:31:13.237Z,96854.28
2022-09-14T05:33:40.929Z,96862.03
2022-09-14T05:36:09.124Z,96873.31
2022-09-14T05:38:39.184Z,96869.81
2022-09-14T05:41:08.304Z,96869.53
2022-09-14T05:43:35.812Z,96871.41
2022-09-14T05:46:10.120Z,96873.31
2022-09-14T05:48:39.386Z,96860.66
2022-09-14T05:51:11.573Z,96867.34
2022-09-14T05:53:39.069Z,96861.19
2022-09-14T05:56:11.569Z,96867.06
2022-09-14T05:58:40.414Z,96864.66
2022-09-14T06:01:12.321Z,96857.03
2022-09-14T06:03:40.974Z,96857.56
2022-09-14T06:06:10.643Z,96859.22
2022-09-14T06:08:38.553Z,96861.94
2022-09-14T06:11:12.183Z,96857.69
2022-09-14T06:13:39.692Z,96864.16
2022-09-14T06:16:09.683Z,96863.34
2022-09-14T06:18:38.171Z,96859.34
2022-09-14T06:21:06.860Z,96869.59
2022-09-14T06:23:34.573Z,96869.34
2022-09-14T06:26:04.525Z,96864.56
2022-09-14T06:28:33.179Z,96867.25
2022-09-14T06:31:01.434Z,96860.00
2022-09-14T06:33:29.032Z,96867.25
2022-09-14T06:36:02.083Z,96862.69
2022-09-14T06:38:30.242Z,96860.00
2022-09-14T06:40:59.778Z,96859.69
2022-09-14T06:43:30.090Z,96862.59
2022-09-14T06:46:04.193Z,96867.13
2022-09-14T06:48:37.384Z,96851.22
2022-09-14T06:51:29.644Z,96860.31
2022-09-14T06:54:01.674Z,96859.16
2022-09-14T06:56:32.611Z,96857.50
2022-09-14T06:59:00.304Z,96853.13
2022-09-14T07:01:28.055Z,96852.25
2022-09-14T07:03:56.212Z,96855.75
2022-09-14T07:06:25.904Z,96851.19
2022-09-14T07:08:54.528Z,96853.41
2022-09-14T07:11:29.671Z,96858.66
2022-09-14T07:14:00.147Z,96857.13
2022-09-14T07:16:28.923Z,96857.34
2022-09-14T07:18:58.149Z,96855.66
2022-09-14T07:21:26.525Z,96856.41
2022-09-14T07:23:55.751Z,96858.78
2022-09-14T07:26:28.402Z,96850.97
2022-09-14T07:28:59.000Z,96850.88
2022-09-14T07:31:35.495Z,96852.50
2022-09-14T07:34:05.010Z,96853.50
2022-09-14T07:36:35.243Z,96843.69
2022-09-14T07:39:05.758Z,96849.59
2022-09-14T07:41:34.514Z,96842.94
2022-09-14T07:44:07.533Z,96851.25
2022-09-14T07:46:40.799Z,96844.97
2022-09-14T07:49:10.084Z,96841.53
2022-09-14T07:51:38.213Z,96841.22
2022-09-14T07:54:07.033Z,96840.63
2022-09-14T07:56:35.280Z,96839.66
2022-09-14T07:59:31.293Z,96831.91
2022-09-14T08:01:52.828Z,96843.50
2022-09-14T08:04:21.373Z,96841.22
2022-09-14T08:06:48.873Z,96834.84
2022-09-14T08:09:16.196Z,96835.34
2022-09-14T08:11:43.624Z,96840.44
2022-09-14T08:14:13.061Z,96835.34
2022-09-14T08:16:41.698Z,96836.84
2022-09-14T08:19:18.446Z,96831.06
2022-09-14T08:21:48.086Z,96840.25
2022-09-14T08:24:21.392Z,96835.66
2022-09-14T08:26:50.075Z,96833.16
2022-09-14T08:29:18.881Z,96840.94
2022-09-14T08:31:47.250Z,96832.38
2022-09-14T08:34:16.587Z,96833.34
2022-09-14T08:36:45.402Z,96830.25
2022-09-14T08:39:15.534Z,96834.34
2022-09-14T08:42:00.373Z,96836.88
2022-09-14T08:44:43.712Z,96834.41
2022-09-14T08:47:29.444Z,96835.66
2022-09-14T08:50:13.836Z,96835.16
2022-09-14T08:52:45.342Z,96838.94
2022-09-14T08:55:28.319Z,96848.78
2022-09-14T08:58:06.080Z,96842.16
2022-09-14T09:00:46.749Z,96838.25
2022-09-14T09:03:36.000Z,96846.75
2022-09-14T09:06:18.452Z,96846.03
2022-09-14T09:08:51.708Z,96840.72
2022-09-14T09:11:22.624Z,96840.53
2022-09-14T09:13:52.102Z,96842.94
2022-09-14T09:16:23.421Z,96840.91
2022-09-14T09:18:57.255Z,96842.69
2022-09-14T09:21:31.493Z,96836.41
2022-09-14T09:24:23.710Z,96832.84
2022-09-14T09:26:51.663Z,96837.66
2022-09-14T09:29:19.245Z,96830.66
2022-09-14T09:32:09.098Z,96824.06
2022-09-14T09:34:55.243Z,96819.47
2022-09-14T09:37:40.579Z,96816.84
2022-09-14T09:40:23.351Z,96825.03
2022-09-14T09:43:11.235Z,96814.94
2022-09-14T09:45:59.022Z,96822.72
2022-09-14T09:48:42.648Z,96818.81
2022-09-14T09:51:13.893Z,96816.69
2022-09-14T09:53:57.129Z,96816.22
2022-09-14T09:56:28.435Z,96817.03
2022-09-14T09:58:56.058Z,96825.38
2022-09-14T10:01:36.361Z,96814.91
2022-09-14T10:04:17.554Z,96814.28
2022-09-14T10:06:48.114Z,96806.09
2022-09-14T10:09:20.579Z,96807.97
2022-09-14T10:11:57.442Z,96804.34
2022-09-14T10:14:37.675Z,96794.38
2022-09-14T10:17:18.294Z,96801.00
2022-09-14T10:19:54.157Z,96803.81
2022-09-14T10:22:32.826Z,96808.78
2022-09-14T10:25:15.354Z,96812.34
2022-09-14T10:27:49.353Z,96807.69
2022-09-14T10:30:18.205Z,96805.94
2022-09-14T10:33:02.428Z,96805.81
2022-09-14T10:35:48.146Z,96807.75
2022-09-14T10:38:52.989Z,96803.38
2022-09-14T10:41:34.434Z,96806.28
2022-09-14T10:44:22.760Z,96808.97
2022-09-14T10:47:04.741Z,96808.13
2022-09-14T10:49:56.714Z,96815.88
2022-09-14T10:52:48.580Z,96825.34
2022-09-14T10:55:24.395Z,96823.88
2022-09-14T10:58:00.733Z,96822.22
2022-09-14T11:00:36.303Z,96828.50
2022-09-14T11:03:25.063Z,96822.19
2022-09-14T11:06:29.804Z,96813.75
2022-09-14T11:09:30.683Z,96818.56
2022-09-14T11:12:04.933Z,96822.78
2022-09-14T11:14:51.798Z,96818.78
2022-09-14T11:17:40.742Z,96818.97
2022-09-14T11:20:42.916Z,96811.06
2022-09-14T11:23:24.530Z,96798.34
2022-09-14T11:26:00.453Z,96789.88
2022-09-14T11:28:34.452Z,96791.06
2022-09-14T11:31:07.775Z,96795.88
2022-09-14T11:33:49.085Z,96808.16
2022-09-14T11:36:24.019Z,96811.50
2022-09-14T11:39:10.825Z,96803.53
2022-09-14T11:41:49.854Z,96789.44
2022-09-14T11:44:25.143Z,96786.91
2022-09-14T11:47:14.441Z,96786.75
2022-09-14T11:50:02.943Z,96774.16
2022-09-14T11:52:32.919Z,96771.78
2022-09-14T11:55:03.092Z,96779.13
2022-09-14T11:57:33.692Z,96791.31
2022-09-14T12:00:06.958Z,96792.06
2022-09-14T12:02:38.537Z,96786.69
2022-09-14T12:05:09.418Z,96787.91
2022-09-14T12:07:39.767Z,96778.53
2022-09-14T12:10:19.516Z,96779.84
2022-09-14T12:13:17.537Z,96774.22
2022-09-14T12:15:45.394Z,96776.69
2022-09-14T12:18:13.531Z,96770.63
2022-09-14T12:20:48.488Z,96770.47
2022-09-14T12:23:24.940Z,96760.88
2022-09-14T12:26:16.973Z,96758.69
2022-09-14T12:28:50.739Z,96758.28
2022-09-14T12:31:55.534Z,96757.69
2022-09-14T12:34:25.759Z,96749.09
2022-09-14T12:37:30.413Z,96751.59
2022-09-14T12:40:20.627Z,96756.47
2022-09-14T12:42:50.760Z,96745.91
2022-09-14T12:46:01.068Z,96747.50
2022-09-14T12:48:48.008Z,96754.19
2022-09-14T12:51:50.410Z,96746.09
2022-09-14T12:54:28.434Z,96739.53
2022-09-14T12:57:28.275Z,96738.72
2022-09-14T13:00:19.118Z,96734.44
2022-09-14T13:02:48.593Z,96714.47
2022-09-14T13:05:24.103Z,96715.56
2022-09-14T13:07:57.880Z,96712.88
2022-09-14T13:10:36.639Z,96706.38
2022-09-14T13:13:21.860Z,96705.16
2022-09-14T13:15:54.347Z,96711.94
2022-09-14T13:18:23.560Z,96702.31
2022-09-14T13:20:58.244Z,96702.31
2022-09-14T13:23:48.866Z,96706.78
2022-09-14T13:26:45.057Z,96704.31
2022-09-14T13:29:16.365Z,96702.41
2022-09-14T13:31:47.142Z,96709.84
2022-09-14T13:34:40.705Z,96714.63
2022-09-14T13:37:14.901Z,96708.38
2022-09-14T13:39:50.961Z,96710.16
2022-09-14T13:42:19.403Z,96697.47
2022-09-14T13:44:49.787Z,96701.06
2022-09-14T13:47:21.500Z,96694.66
2022-09-14T13:49:51.535Z,96696.31
2022-09-14T13:52:38.524Z,96703.94
2022-09-14T13:55:27.494Z,96701.34
2022-09-14T13:58:24.507Z,96699.16
2022-09-14T14:01:00.989Z,96694.47
2022-09-14T14:03:39.889Z,96687.13
2022-09-14T14:06:21.243Z,96686.41
2022-09-14T14:08:59.952Z,96677.44
2022-09-14T14:11:36.729Z,96674.16
2022-09-14T14:14:16.629Z,96676.47
2022-09-14T14:17:22.065Z,96673.97
2022-09-14T14:19:52.752Z,96679.25
2022-09-14T14:22:25.280Z,96673.75
2022-09-14T14:27:46.839Z,96660.69
2022-09-14T14:30:20.202Z,96665.91
2022-09-14T14:32:56.097Z,96656.91
2022-09-14T14:35:27.834Z,96655.31
2022-09-14T14:37:55.877Z,96652.63
2022-09-14T14:40:24.892Z,96655.13
2022-09-14T14:42:52.850Z,96658.00
2022-09-14T14:45:26.631Z,96658.16
2022-09-14T14:47:55.775Z,96662.06
2022-09-14T14:50:29.093Z,96658.66
2022-09-14T14:52:57.479Z,96660.47
2022-09-14T14:55:25.773Z,96661.06
2022-09-14T14:57:53.873Z,96660.22
2022-09-14T15:00:23.744Z,96659.03
2022-09-14T15:02:51.717Z,96659.72
2022-09-14T15:05:19.852Z,96661.22
2022-09-14T15:07:50.144Z,96663.66
2022-09-14T15:10:18.759Z,96658.09
2022-09-14T15:12:46.524Z,96663.97
2022-09-14T15:15:19.957Z,96658.59
2022-09-14T15:17:47.932Z,96659.13
2022-09-14T15:20:15.616Z,96663.59
2022-09-14T15:22:43.115Z,96657.34
2022-09-14T15:25:12.241Z,96661.03
2022-09-14T15:27:40.832Z,96659.44
2022-09-14T15:30:09.979Z,96651.84
2022-09-14T15:32:37.663Z,96651.75
2022-09-14T15:35:07.374Z,96647.75
2022-09-14T15:37:34.839Z,96646.69
2022-09-14T15:40:03.683Z,96648.34
2022-09-14T15:42:31.395Z,96651.44
2022-09-14T15:44:58.794Z,96653.53
2022-09-14T15:47:26.300Z,96644.88
2022-09-14T15:49:53.782Z,96643.09
2022-09-14T15:52:21.519Z,96644.38
2022-09-14T15:54:49.389Z,96649.75
2022-09-14T15:57:16.917Z,96647.06
2022-09-14T15:59:44.399Z,96646.25
2022-09-14T16:02:14.730Z,96641.66
2022-09-14T16:04:42.294Z,96643.50
2022-09-14T16:07:10.069Z,96638.19
2022-09-14T16:09:42.692Z,96642.84
2022-09-14T16:12:12.434Z,96640.69
2022-09-14T16:14:40.233Z,96641.66
2022-09-14T16:17:09.566Z,96639.81
2022-09-14T16:19:37.174Z,96641.66
2022-09-14T16:22:04.959Z,96638.38
2022-09-14T16:24:33.023Z,96645.38
2022-09-14T16:27:01.020Z,96640.41
2022-09-14T16:29:28.429Z,96624.53
2022-09-14T16:31:56.093Z,96624.94
2022-09-14T16:34:29.648Z,96617.69
2022-09-14T16:36:58.856Z,96615.59
2022-09-14T16:39:29.872Z,96614.88
2022-09-14T16:41:58.702Z,96607.88
2022-09-14T16:44:27.899Z,96614.38
2022-09-14T16:46:57.917Z,96612.19
2022-09-14T16:49:28.256Z,96610.56
2022-09-14T16:51:57.494Z,96605.41
2022-09-14T16:54:26.051Z,96602.41
2022-09-14T16:56:58.265Z,96600.13
2022-09-14T16:59:26.391Z,96599.44
2022-09-14T17:01:55.442Z,96596.44
2022-09-14T17:04:24.759Z,96599.91
2022-09-14T17:06:53.370Z,96590.97
2022-09-14T17:09:23.493Z,96598.72
2022-09-14T17:11:51.619Z,96587.56
2022-09-14T17:14:22.436Z,96577.81
2022-09-14T17:16:50.178Z,96585.16
2022-09-14T17:19:18.094Z,96581.78
2022-09-14T17:21:47.257Z,96576.41
2022-09-14T17:24:16.116Z,96569.59
2022-09-14T17:26:43.873Z,96567.50
2022-09-14T17:29:12.523Z,96563.22
2022-09-14T17:31:42.083Z,96563.75
2022-09-14T17:34:11.574Z,96562.63
2022-09-14T17:36:39.326Z,96561.53
2022-09-14T17:39:11.752Z,96561.75
2022-09-14T17:41:42.911Z,96550.75
2022-09-14T17:44:12.877Z,96545.38
2022-09-14T17:46:48.575Z,96537.28
2022-09-14T17:49:18.780Z,96538.91
2022-09-14T17:51:46.268Z,96541.78
2022-09-14T17:54:13.783Z,96532.72
2022-09-14T17:56:41.572Z,96540.00
2022-09-14T17:59:16.039Z,96525.84
2022-09-14T18:01:43.913Z,96519.66
2022-09-14T18:04:13.277Z,96522.94
2022-09-14T18:06:43.402Z,96517.78
2022-09-14T18:09:13.954Z,96529.34
2022-09-14T18:11:42.292Z,96528.88
2022-09-14T18:14:12.874Z,96532.34
2022-09-14T18:16:41.377Z,96536.03
2022-09-14T18:19:09.499Z,96526.84
2022-09-14T18:21:37.046Z,96535.94
2022-09-14T18:24:05.226Z,96537.22
2022-09-14T18:26:32.750Z,96532.13
2022-09-14T18:29:00.250Z,96531.84
2022-09-14T18:31:28.159Z,96539.59
2022-09-14T18:33:59.469Z,96542.63
2022-09-14T18:36:29.424Z,96535.31
2022-09-14T18:38:58.900Z,96534.03
2022-09-14T18:41:29.623Z,96525.75
2022-09-14T18:43:58.309Z,96535.13
2022-09-14T18:46:28.273Z,96533.34
2022-09-14T18:48:59.884Z,96537.91
2022-09-14T18:51:29.044Z,96532.03
2022-09-14T18:54:03.690Z,96526.38
2022-09-14T18:56:34.860Z,96518.38
2022-09-14T18:59:04.160Z,96520.56
2022-09-14T19:01:34.012Z,96522.19
2022-09-14T19:04:03.913Z,96519.50
2022-09-14T19:06:33.263Z,96520.78
2022-09-14T19:09:00.910Z,96518.50
2022-09-14T19:11:30.685Z,96518.66
2022-09-14T19:14:01.687Z,96516.97
2022-09-14T19:16:30.389Z,96516.69
2022-09-14T19:18:58.077Z,96512.09
2022-09-14T19:21:28.026Z,96522.06
2022-09-14T19:23:57.743Z,96516.97
2022-09-14T19:26:25.289Z,96517.09
2022-09-14T19:28:53.084Z,96520.25
2022-09-14T19:31:23.569Z,96518.63
2022-09-14T19:33:52.214Z,96516.34
2022-09-14T19:36:22.516Z,96517.16
2022-09-14T19:38:52.226Z,96515.72
2022-09-14T19:41:21.450Z,96508.47
2022-09-14T19:43:49.395Z,96512.03
2022-09-14T19:46:23.490Z,96509.75
2022-09-14T19:48:52.119Z,96507.66
2022-09-14T19:51:25.370Z,96506.81
2022-09-14T19:53:55.943Z,96515.81
2022-09-14T19:56:25.990Z,96514.22
2022-09-14T19:58:55.504Z,96488.38
2022-09-14T20:01:25.629Z,96478.88
2022-09-14T20:03:53.972Z,96488.63
2022-09-14T20:06:26.096Z,96491.91
2022-09-14T20:08:56.392Z,96483.13
2022-09-14T20:11:26.032Z,96481.22
2022-09-14T20:13:55.402Z,96489.78
2022-09-14T20:16:24.662Z,96498.06
2022-09-14T20:18:52.841Z,96488.13
2022-09-14T20:21:23.193Z,96483.31
2022-09-14T20:24:15.178Z,96485.00
2022-09-14T20:26:50.574Z,96482.22
2022-09-14T20:29:20.293Z,96492.91
2022-09-14T20:31:48.025Z,96487.94
2022-09-14T20:34:18.211Z,96489.22
2022-09-14T20:36:46.915Z,96498.66
2022-09-14T20:39:14.773Z,96507.72
2022-09-14T20:41:42.574Z,96485.16
2022-09-14T20:44:10.694Z,96480.22
2022-09-14T20:46:40.907Z,96489.34
2022-09-14T20:49:11.843Z,96485.38
2022-09-14T20:51:40.283Z,96486.78
2022-09-14T20:54:10.054Z,96488.72
2022-09-14T20:56:37.616Z,96493.09
2022-09-14T20:59:07.422Z,96488.31
2022-09-14T21:01:37.049Z,96495.53
2022-09-14T21:04:12.044Z,96492.72
2022-09-14T21:06:43.395Z,96483.06
2022-09-14T21:09:12.353Z,96493.91
2022-09-14T21:11:40.052Z,96500.34
2022-09-14T21:14:08.823Z,96497.66
2022-09-14T21:16:43.125Z,96495.63
2022-09-14T21:19:22.384Z,96501.59
2022-09-14T21:21:50.330Z,96499.19
2022-09-14T21:24:22.139Z,96490.91
2022-09-14T21:26:50.774Z,96497.81
2022-09-14T21:29:23.741Z,96510.28
2022-09-14T21:31:52.325Z,96515.78
2022-09-14T21:34:19.956Z,96519.78
2022-09-14T21:36:49.715Z,96515.16
2022-09-14T21:39:21.714Z,96515.00
2022-09-14T21:41:54.465Z,96512.97
2022-09-14T21:44:32.367Z,96512.03
2022-09-14T21:47:00.792Z,96524.66
2022-09-14T21:49:28.475Z,96543.59
2022-09-14T21:51:55.978Z,96550.78
2022-09-14T21:54:23.879Z,96562.09
2022-09-14T21:56:52.946Z,96568.13
2022-09-14T21:59:22.045Z,96585.41
2022-09-14T22:01:50.320Z,96580.09
2022-09-14T22:04:20.572Z,96574.78
2022-09-14T22:06:50.512Z,96551.59
2022-09-14T22:09:19.755Z,96548.84
2022-09-14T22:11:47.467Z,96548.06
2022-09-14T22:14:20.426Z,96550.19
2022-09-14T22:16:49.104Z,96540.94
2022-09-14T22:19:20.285Z,96538.09
2022-09-14T22:21:48.586Z,96539.41
2022-09-14T22:24:19.806Z,96548.25
2022-09-14T22:26:47.793Z,96546.34
2022-09-14T22:29:15.314Z,96553.81
2022-09-14T22:31:44.940Z,96549.03
2022-09-14T22:34:13.256Z,96549.44
2022-09-14T22:36:41.086Z,96544.13
2022-09-14T22:39:09.986Z,96535.53
2022-09-14T22:41:37.761Z,96533.69
2022-09-14T22:44:06.173Z,96538.25
2022-09-14T22:46:34.350Z,96537.22
2022-09-14T22:49:01.861Z,96545.88
2022-09-14T22:55:43.131Z,96556.38
2022-09-14T22:58:12.410Z,96563.63
2022-09-14T23:00:40.935Z,96572.25
2022-09-14T23:03:10.252Z,96573.59
2022-09-14T23:05:39.042Z,96574.44
2022-09-14T23:08:08.240Z,96567.47
2022-09-14T23:10:39.011Z,96565.63
2022-09-14T23:13:06.445Z,96576.91
2022-09-14T23:15:37.705Z,96573.41
2022-09-14T23:18:05.875Z,96577.16
2022-09-14T23:20:41.722Z,96574.19
2022-09-14T23:23:10.444Z,96580.34
2022-09-14T23:25:40.325Z,96586.50
2022-09-14T23:28:11.025Z,96583.81
2022-09-14T23:30:39.040Z,96579.00
2022-09-14T23:33:06.839Z,96579.00
2022-09-14T23:35:37.579Z,96582.78
2022-09-14T23:38:05.370Z,96591.06
2022-09-14T23:40:32.868Z,96597.22
2022-09-14T23:43:00.328Z,96592.69
2022-09-14T23:45:27.789Z,96596.16
2022-09-14T23:47:55.260Z,96592.91
2022-09-14T23:50:23.392Z,96592.13
2022-09-14T23:52:50.877Z,96597.50
2022-09-14T23:55:18.441Z,96592.97
2022-09-14T23:57:45.986Z,96591.59
